Time;durP1;ratioP1;P1;durP2;ratioP2;P2;SDS_P1;SDS_P2;PMS_P1;PMS_P2;Temp;Humidity;BMP_temperature;BMP_pressure;BME280_temperature;BME280_humidity;BME280_pressure;Samples;Min_cycle;Max_cycle;Signal;HPM_P1;HPM_P2
2021/04/10 00:00:36;;;;;;;4.80;2.60;;;;;;;5.97;45.72;95344.69;4971471;28;20394;-65
2021/04/10 00:03:12;;;;;;;5.25;2.53;;;;;;;6.03;46.11;95343.75;4985671;28;20050;-66
2021/04/10 00:05:38;;;;;;;3.83;2.30;;;;;;;6.22;44.70;95338.16;4991128;28;20069;-66
2021/04/10 00:08:04;;;;;;;4.15;2.25;;;;;;;6.22;45.37;95332.94;4989126;28;20096;-66
2021/04/10 00:10:30;;;;;;;4.95;2.60;;;;;;;6.33;44.89;95337.25;4990059;28;20471;-65
2021/04/10 00:12:58;;;;;;;4.78;2.80;;;;;;;6.43;45.10;95325.34;4987501;28;20504;-66
2021/04/10 00:15:24;;;;;;;10.45;2.85;;;;;;;6.37;44.20;95327.09;4986879;28;20416;-66
2021/04/10 00:17:50;;;;;;;5.50;3.13;;;;;;;6.25;45.58;95329.88;4987038;28;20042;-66
2021/04/10 00:20:19;;;;;;;4.43;2.75;;;;;;;6.05;45.75;95333.84;4990925;28;20065;-65
2021/04/10 00:22:46;;;;;;;5.78;2.75;;;;;;;6.10;45.66;95332.31;4989549;28;20037;-66
2021/04/10 00:25:13;;;;;;;5.63;2.60;;;;;;;5.56;48.64;95323.31;4988593;28;20047;-66
2021/04/10 00:27:40;;;;;;;8.23;3.15;;;;;;;4.77;56.50;95337.28;4990791;28;20042;-65
2021/04/10 00:30:11;;;;;;;6.82;3.22;;;;;;;4.06;57.52;95332.44;4990555;28;20066;-65
2021/04/10 00:32:36;;;;;;;5.90;3.08;;;;;;;3.76;58.92;95323.00;4983570;28;20417;-66
2021/04/10 00:35:03;;;;;;;5.22;2.97;;;;;;;3.48;61.11;95327.13;4991078;28;20050;-65
2021/04/10 00:37:29;;;;;;;6.47;3.00;;;;;;;3.42;61.21;95322.81;4990716;28;20042;-65
2021/04/10 00:39:54;;;;;;;5.78;3.10;;;;;;;3.17;63.33;95321.25;4989390;28;20053;-65
2021/04/10 00:42:20;;;;;;;5.53;2.85;;;;;;;3.38;62.16;95316.53;4987047;28;20042;-66
2021/04/10 00:44:45;;;;;;;7.43;3.53;;;;;;;3.23;63.27;95316.97;4985296;28;20296;-65
2021/04/10 00:47:11;;;;;;;5.30;3.22;;;;;;;3.06;64.64;95319.47;4986710;28;20050;-65
2021/04/10 00:49:36;;;;;;;5.13;2.80;;;;;;;2.99;64.03;95318.78;4988772;28;20058;-65
2021/04/10 00:52:03;;;;;;;7.13;3.92;;;;;;;2.85;65.36;95319.00;4988679;28;20054;-66
2021/04/10 00:54:29;;;;;;;5.32;3.00;;;;;;;2.90;62.73;95311.34;4985461;28;20046;-65
2021/04/10 00:56:55;;;;;;;4.53;2.90;;;;;;;2.85;63.56;95319.00;4988875;28;20389;-65
2021/04/10 00:59:20;;;;;;;4.57;2.97;;;;;;;2.86;62.93;95307.59;4988963;28;20038;-66
2021/04/10 01:01:46;;;;;;;5.55;3.00;;;;;;;2.73;62.65;95315.59;4990489;28;20093;-66
2021/04/10 01:04:12;;;;;;;5.13;2.63;;;;;;;2.75;61.45;95318.78;4986057;28;20042;-65
2021/04/10 01:06:38;;;;;;;4.60;2.90;;;;;;;2.76;62.30;95320.38;4990311;28;20038;-65
2021/04/10 01:09:04;;;;;;;5.32;2.75;;;;;;;2.79;62.77;95312.13;4989856;28;20567;-65
2021/04/10 01:11:41;;;;;;;4.78;2.72;;;;;;;2.73;61.38;95323.38;4989369;28;20611;-65
2021/04/10 01:14:22;;;;;;;5.72;2.97;;;;;;;2.66;61.87;95325.28;4992842;28;20047;-65
2021/04/10 01:16:58;;;;;;;6.15;3.10;;;;;;;2.71;62.55;95325.44;4991544;28;20085;-65
2021/04/10 01:20:00;;;;;;;6.00;2.88;;;;;;;2.67;60.93;95324.28;4993838;28;20500;-66
2021/04/10 01:22:44;;;;;;;6.40;3.22;;;;;;;2.75;60.67;95319.56;4987895;28;20065;-65
2021/04/10 01:25:39;;;;;;;4.70;2.53;;;;;;;2.64;61.56;95322.13;4992233;28;20061;-65
2021/04/10 01:28:12;;;;;;;;;;;;;;;2.49;62.31;95325.19;4994383;28;20043;-65
2021/04/10 01:30:38;;;;;;;6.65;3.00;;;;;;;2.48;63.01;95323.59;4990691;28;19934;-65
2021/04/10 01:33:10;;;;;;;6.47;3.10;;;;;;;2.46;63.83;95323.81;4985274;28;20513;-66
2021/04/10 01:35:43;;;;;;;8.63;3.10;;;;;;;2.35;63.13;95327.16;4993675;28;20059;-66
2021/04/10 01:38:13;;;;;;;6.18;3.20;;;;;;;2.41;63.31;95324.47;4993135;28;20042;-66
2021/04/10 01:40:39;;;;;;;4.68;2.95;;;;;;;2.40;63.64;95330.69;4990879;28;20073;-66
2021/04/10 01:43:07;;;;;;;6.15;3.15;;;;;;;2.35;63.23;95330.53;5003772;28;20518;-65
2021/04/10 01:45:32;;;;;;;4.55;3.00;;;;;;;2.22;65.17;95336.69;4989026;28;20206;-65
2021/04/10 01:48:11;;;;;;;7.40;3.10;;;;;;;2.27;66.15;95335.25;4993547;28;20388;-66
2021/04/10 01:50:38;;;;;;;5.40;2.92;;;;;;;2.30;64.08;95337.41;4985188;28;20042;-65
2021/04/10 01:53:04;;;;;;;6.65;3.47;;;;;;;2.37;64.48;95332.91;4990018;28;20046;-65
2021/04/10 01:55:30;;;;;;;5.20;2.80;;;;;;;2.39;65.57;95330.91;4986928;28;20064;-66
2021/04/10 01:57:56;;;;;;;5.75;2.92;;;;;;;2.50;63.89;95337.94;4992735;28;20520;-65
2021/04/10 02:00:25;;;;;;;6.93;3.00;;;;;;;2.49;65.97;95336.34;4992995;28;20089;-65
2021/04/10 02:02:54;;;;;;;5.72;3.20;;;;;;;2.49;63.17;95338.94;4978791;28;20413;-66
2021/04/10 02:05:21;;;;;;;6.07;3.13;;;;;;;2.52;63.50;95341.09;4982530;28;20117;-65
2021/04/10 02:07:49;;;;;;;5.70;2.97;;;;;;;2.57;63.62;95333.44;4993211;28;20038;-65
2021/04/10 02:10:21;;;;;;;5.35;2.97;;;;;;;2.54;64.06;95328.69;4991851;28;20519;-66
2021/04/10 02:12:49;;;;;;;5.97;2.95;;;;;;;2.55;64.69;95339.88;4987725;28;20038;-66
2021/04/10 02:15:14;;;;;;;7.75;3.25;;;;;;;2.52;66.27;95330.69;4990296;28;20035;-65
2021/04/10 02:17:40;;;;;;;5.25;2.97;;;;;;;2.60;65.36;95338.19;4993588;28;20141;-65
2021/04/10 02:20:10;;;;;;;4.68;2.90;;;;;;;2.67;64.11;95332.09;4992638;28;20515;-66
2021/04/10 02:22:42;;;;;;;5.70;3.00;;;;;;;2.74;63.61;95332.78;4982767;28;20042;-65
2021/04/10 02:25:09;;;;;;;6.93;3.05;;;;;;;2.64;65.19;95337.72;4991409;28;20070;-66
2021/04/10 02:27:35;;;;;;;7.35;3.00;;;;;;;2.65;65.85;95328.94;4991718;28;20034;-65
2021/04/10 02:30:01;;;;;;;4.97;2.88;;;;;;;2.73;64.60;95336.38;4989093;28;20416;-66
2021/04/10 02:32:30;;;;;;;7.38;3.25;;;;;;;2.63;65.40;95325.75;4988418;28;20419;-65
2021/04/10 02:35:22;;;;;;;5.63;3.10;;;;;;;2.60;65.68;95327.78;4992083;28;20452;-65
2021/04/10 02:37:49;;;;;;;6.28;3.30;;;;;;;2.68;65.43;95328.47;4992104;28;20054;-65
2021/04/10 02:40:19;;;;;;;6.65;3.03;;;;;;;2.76;65.67;95331.53;4981474;28;20512;-66
2021/04/10 02:42:46;;;;;;;7.10;3.38;;;;;;;2.76;65.67;95325.56;4989258;28;20475;-65
2021/04/10 02:45:15;;;;;;;5.10;2.85;;;;;;;2.86;65.48;95324.97;4988988;28;20484;-66
2021/04/10 02:47:43;;;;;;;8.07;3.28;;;;;;;2.74;67.66;95328.38;4987483;28;20043;-65
2021/04/10 02:50:11;;;;;;;5.65;3.30;;;;;;;2.77;69.87;95327.94;4992182;28;20042;-65
2021/04/10 02:52:49;;;;;;;5.95;3.03;;;;;;;2.86;68.73;95325.78;4991728;28;20038;-65
2021/04/10 02:55:32;;;;;;;5.95;3.10;;;;;;;2.73;68.74;95325.97;4983211;28;20435;-65
2021/04/10 02:58:01;;;;;;;6.57;3.17;;;;;;;2.76;68.29;95321.16;5001548;28;20034;-65
2021/04/10 03:00:28;;;;;;;7.55;2.78;;;;;;;3.06;63.56;95319.47;4990540;28;20058;-65
2021/04/10 03:02:56;;;;;;;7.22;3.63;;;;;;;3.02;66.66;95318.34;4991473;28;20046;-66
2021/04/10 03:05:22;;;;;;;6.22;3.17;;;;;;;3.08;67.16;95317.44;4991622;28;20054;-65
2021/04/10 03:07:49;;;;;;;6.85;2.88;;;;;;;3.75;58.39;95322.22;4992426;28;20057;-66
2021/04/10 03:10:17;;;;;;;6.18;2.90;;;;;;;3.76;59.39;95328.22;4984396;28;20039;-65
2021/04/10 03:12:43;;;;;;;5.15;3.13;;;;;;;3.75;60.76;95326.63;4989205;28;20066;-66
2021/04/10 03:15:13;;;;;;;5.90;3.38;;;;;;;4.02;57.50;95326.09;4989347;28;20042;-65
2021/04/10 03:17:40;;;;;;;5.78;3.08;;;;;;;4.11;57.31;95324.72;4991233;28;20054;-65
2021/04/10 03:20:10;;;;;;;5.00;2.70;;;;;;;4.16;57.02;95327.41;4991778;28;20041;-65
2021/04/10 03:22:36;;;;;;;5.05;2.53;;;;;;;4.28;57.45;95322.94;4989834;28;20050;-65
2021/04/10 03:25:02;;;;;;;5.50;2.70;;;;;;;4.68;54.48;95319.44;4977592;28;20049;-65
2021/04/10 03:27:28;;;;;;;4.63;2.50;;;;;;;5.26;51.58;95318.44;4988730;28;20051;-65
2021/04/10 03:29:54;;;;;;;4.93;2.85;;;;;;;5.41;50.81;95320.50;4989094;28;20309;-65
2021/04/10 03:32:20;;;;;;;5.35;2.80;;;;;;;5.46;50.63;95317.94;4988200;28;20045;-65
2021/04/10 03:34:47;;;;;;;6.40;2.90;;;;;;;5.57;49.76;95319.63;4990493;28;20193;-65
2021/04/10 03:37:13;;;;;;;3.75;2.50;;;;;;;5.65;49.78;95321.84;4990317;28;20061;-65
2021/04/10 03:39:39;;;;;;;5.50;2.70;;;;;;;5.73;49.97;95324.03;4981786;28;20506;-65
2021/04/10 03:42:08;;;;;;;5.03;2.70;;;;;;;5.78;49.50;95319.91;4985100;28;20101;-65
2021/04/10 03:44:33;;;;;;;6.30;2.88;;;;;;;5.84;48.87;95324.16;4991022;28;20046;-65
2021/04/10 03:46:59;;;;;;;8.07;2.60;;;;;;;5.89;48.59;95326.84;4989350;28;20511;-65
2021/04/10 03:49:24;;;;;;;5.70;2.83;;;;;;;5.92;48.29;95328.97;4991099;28;20069;-65
2021/04/10 03:51:50;;;;;;;4.93;2.60;;;;;;;6.00;47.84;95323.31;4991272;28;20038;-65
2021/04/10 03:54:16;;;;;;;4.47;2.67;;;;;;;5.96;48.36;95322.22;5006106;28;20042;-65
2021/04/10 03:56:41;;;;;;;7.82;2.72;;;;;;;5.98;47.88;95322.78;4988141;28;20490;-65
2021/04/10 03:59:07;;;;;;;5.22;2.80;;;;;;;6.04;47.75;95334.84;4987306;28;20049;-65
2021/04/10 04:01:32;;;;;;;5.28;2.78;;;;;;;6.07;47.75;95326.53;4989736;28;20133;-65
2021/04/10 04:03:58;;;;;;;4.63;2.53;;;;;;;6.11;47.91;95333.91;4988441;28;20397;-65
2021/04/10 04:06:23;;;;;;;5.70;2.80;;;;;;;6.05;47.58;95336.44;4987849;28;20041;-65
2021/04/10 04:08:49;;;;;;;6.70;2.92;;;;;;;6.14;47.90;95333.41;4985168;28;20042;-65
2021/04/10 04:11:15;;;;;;;5.47;2.70;;;;;;;6.13;47.78;95331.81;4989588;28;20042;-66
2021/04/10 04:13:40;;;;;;;5.38;2.65;;;;;;;6.10;48.40;95337.53;4989066;28;20046;-66
2021/04/10 04:16:06;;;;;;;4.55;2.72;;;;;;;6.12;47.72;95335.47;4988498;28;20070;-65
2021/04/10 04:18:31;;;;;;;6.13;2.88;;;;;;;6.22;46.82;95335.56;4979365;28;20493;-66
2021/04/10 04:20:57;;;;;;;4.97;2.40;;;;;;;6.17;47.94;95332.91;4987488;28;20130;-65
2021/04/10 04:23:22;;;;;;;4.80;2.50;;;;;;;6.09;47.74;95333.34;4990824;28;20050;-66
2021/04/10 04:25:48;;;;;;;4.32;2.53;;;;;;;6.10;47.69;95333.09;5001823;28;20046;-65
2021/04/10 04:28:13;;;;;;;7.30;2.90;;;;;;;6.06;47.27;95338.03;4990465;28;20043;-64
2021/04/10 04:30:39;;;;;;;6.15;3.05;;;;;;;6.11;47.55;95339.91;4988530;28;20046;-65
2021/04/10 04:33:04;;;;;;;3.72;2.47;;;;;;;6.07;47.52;95344.81;4990533;28;20467;-65
2021/04/10 04:35:30;;;;;;;7.75;2.40;;;;;;;6.16;47.93;95344.38;4985794;28;20043;-65
2021/04/10 04:37:56;;;;;;;5.57;2.78;;;;;;;6.07;47.79;95347.44;4990204;28;20053;-64
2021/04/10 04:40:21;;;;;;;4.65;2.83;;;;;;;5.97;47.95;95343.91;5005691;28;20038;-65
2021/04/10 04:42:47;;;;;;;6.43;3.03;;;;;;;5.94;47.95;95344.38;4985613;28;20101;-65
2021/04/10 04:45:12;;;;;;;7.10;2.70;;;;;;;6.02;48.68;95342.16;4982412;28;20121;-65
2021/04/10 04:47:38;;;;;;;4.20;2.40;;;;;;;6.03;47.68;95342.94;4976930;28;20047;-66
2021/04/10 04:50:04;;;;;;;4.85;2.60;;;;;;;6.03;48.31;95348.97;4993923;28;20038;-65
2021/04/10 04:52:31;;;;;;;4.90;2.30;;;;;;;6.05;47.69;95341.66;4975206;28;20505;-65
2021/04/10 04:54:57;;;;;;;5.43;2.63;;;;;;;6.03;48.50;95342.94;4982018;28;20488;-65
2021/04/10 04:57:22;;;;;;;6.97;2.53;;;;;;;5.98;47.74;95359.34;4986636;28;20053;-65
2021/04/10 04:59:48;;;;;;;4.45;2.70;;;;;;;6.06;47.25;95364.16;4990430;28;20045;-65
2021/04/10 05:02:14;;;;;;;4.40;2.70;;;;;;;5.92;48.49;95365.53;4999914;28;20050;-65
2021/04/10 05:04:41;;;;;;;4.57;2.55;;;;;;;5.94;48.19;95373.91;4991096;28;20081;-65
2021/04/10 05:07:07;;;;;;;5.55;2.25;;;;;;;5.90;48.23;95378.03;4994768;28;20112;-65
2021/04/10 05:09:33;;;;;;;4.75;2.67;;;;;;;5.85;48.98;95383.19;4993293;28;20046;-65
2021/04/10 05:11:58;;;;;;;5.85;2.65;;;;;;;5.86;49.74;95382.94;4993269;28;20045;-65
2021/04/10 05:14:24;;;;;;;7.50;2.75;;;;;;;5.92;49.05;95389.03;4993661;28;20046;-66
2021/04/10 05:16:49;;;;;;;5.07;2.70;;;;;;;5.84;49.98;95392.06;4992602;28;20038;-66
2021/04/10 05:19:15;;;;;;;7.65;2.58;;;;;;;5.83;49.17;95390.47;4993090;28;20049;-65
2021/04/10 05:21:41;;;;;;;5.45;2.53;;;;;;;5.94;49.16;95397.41;4986404;28;20041;-66
2021/04/10 05:24:07;;;;;;;6.43;2.72;;;;;;;5.92;49.71;95402.09;4993763;28;20116;-66
2021/04/10 05:26:32;;;;;;;4.60;2.80;;;;;;;5.76;51.13;95397.69;4978866;28;20198;-66
2021/04/10 05:28:58;;;;;;;5.25;2.78;;;;;;;5.90;50.30;95397.13;4987159;28;20045;-66
2021/04/10 05:31:23;;;;;;;8.40;2.90;;;;;;;6.01;49.42;95392.81;4993655;28;20046;-65
2021/04/10 05:33:49;;;;;;;6.55;2.80;;;;;;;5.91;49.25;95390.06;4992794;28;20035;-66
2021/04/10 05:36:15;;;;;;;6.13;2.47;;;;;;;6.17;48.30;95395.63;4989931;28;20050;-66
2021/04/10 05:38:40;;;;;;;6.45;2.55;;;;;;;6.17;48.28;95390.41;4993008;28;20087;-66
2021/04/10 05:41:07;;;;;;;4.93;2.80;;;;;;;6.17;48.90;95395.63;4992847;28;20046;-66
2021/04/10 05:43:33;;;;;;;4.07;2.40;;;;;;;6.23;48.31;95389.41;4991372;28;20046;-65
2021/04/10 05:45:58;;;;;;;5.43;2.75;;;;;;;6.27;49.02;95385.28;4987829;28;20515;-66
2021/04/10 05:48:24;;;;;;;4.90;2.83;;;;;;;6.35;48.62;95387.47;4993287;28;20415;-66
2021/04/10 05:50:49;;;;;;;5.57;2.58;;;;;;;6.48;47.67;95401.16;4993269;28;20049;-66
2021/04/10 05:53:15;;;;;;;4.45;2.65;;;;;;;6.68;47.29;95400.59;4993013;28;20555;-65
2021/04/10 05:55:41;;;;;;;5.43;2.70;;;;;;;6.84;46.54;95393.66;5005577;28;20042;-66
2021/04/10 05:58:06;;;;;;;3.70;2.47;;;;;;;6.87;46.63;95398.44;4993435;28;20073;-66
2021/04/10 06:00:32;;;;;;;6.40;3.10;;;;;;;6.97;46.47;95398.53;4993155;28;20408;-66
2021/04/10 06:02:57;;;;;;;5.32;2.42;;;;;;;7.02;47.14;95406.41;4991721;28;20045;-66
2021/04/10 06:05:23;;;;;;;4.53;2.40;;;;;;;7.03;46.25;95401.97;4987083;28;20050;-65
2021/04/10 06:07:49;;;;;;;4.30;2.60;;;;;;;7.07;46.41;95400.44;4993226;28;20038;-65
2021/04/10 06:10:16;;;;;;;10.50;2.90;;;;;;;7.10;46.46;95403.34;4987899;28;20046;-66
2021/04/10 06:12:42;;;;;;;4.18;2.65;;;;;;;7.14;46.33;95402.81;4979238;28;20043;-66
2021/04/10 06:15:10;;;;;;;5.65;2.95;;;;;;;7.04;47.83;95404.34;4983006;28;20484;-66
2021/04/10 06:17:36;;;;;;;5.93;2.40;;;;;;;7.15;46.68;95414.88;4981831;28;20097;-66
2021/04/10 06:20:04;;;;;;;5.95;2.63;;;;;;;7.06;47.90;95412.72;4989081;28;20043;-66
2021/04/10 06:22:30;;;;;;;3.65;2.33;;;;;;;7.45;46.28;95399.38;4992513;28;20094;-66
2021/04/10 06:24:55;;;;;;;4.78;2.55;;;;;;;7.41;47.69;95408.81;4989334;28;20046;-66
2021/04/10 06:27:21;;;;;;;4.75;2.45;;;;;;;7.52;46.81;95408.88;4993019;28;20117;-66
2021/04/10 06:29:46;;;;;;;5.80;2.47;;;;;;;7.51;47.63;95407.28;4992624;28;20516;-66
2021/04/10 06:32:12;;;;;;;9.43;3.75;;;;;;;7.62;46.51;95408.94;4991974;28;20043;-66
2021/04/10 06:34:37;;;;;;;5.25;2.78;;;;;;;7.87;46.65;95404.88;4983787;28;20475;-66
2021/04/10 06:37:03;;;;;;;5.25;2.40;;;;;;;8.09;44.68;95405.53;5007063;28;20050;-66
2021/04/10 06:39:29;;;;;;;4.78;2.78;;;;;;;8.35;44.62;95410.88;4981018;28;20046;-66
2021/04/10 06:41:55;;;;;;;7.95;2.30;;;;;;;8.52;44.48;95415.13;4973550;28;20066;-66
2021/04/10 06:44:20;;;;;;;6.53;2.50;;;;;;;8.65;44.27;95406.78;4987573;28;20039;-66
2021/04/10 06:46:48;;;;;;;3.75;2.40;;;;;;;8.73;44.64;95411.50;5005061;28;20088;-66
2021/04/10 06:49:14;;;;;;;3.50;2.10;;;;;;;8.97;42.93;95405.78;4992480;28;20161;-65
2021/04/10 06:51:41;;;;;;;6.68;2.35;;;;;;;8.95;43.76;95405.25;4992883;28;20069;-66
2021/04/10 06:54:07;;;;;;;5.57;2.42;;;;;;;9.07;43.98;95405.78;4989996;28;20484;-65
2021/04/10 06:56:37;;;;;;;8.32;2.67;;;;;;;9.07;43.80;95405.78;4991041;28;20042;-65
2021/04/10 06:59:15;;;;;;;5.32;2.30;;;;;;;9.28;43.34;95400.53;4992324;28;20046;-66
2021/04/10 07:01:41;;;;;;;4.13;2.33;;;;;;;9.16;43.00;95398.94;4985011;28;20054;-66
2021/04/10 07:04:08;;;;;;;4.80;2.28;;;;;;;9.42;42.22;95401.56;4991795;28;20420;-66
2021/04/10 07:06:37;;;;;;;4.60;2.22;;;;;;;9.57;42.57;95407.84;4983563;28;20046;-66
2021/04/10 07:09:03;;;;;;;5.82;2.17;;;;;;;9.57;42.56;95399.97;4990171;28;20416;-66
2021/04/10 07:11:29;;;;;;;5.80;2.47;;;;;;;9.66;42.45;95406.28;4991931;28;20057;-66
2021/04/10 07:13:54;;;;;;;4.13;2.20;;;;;;;9.71;42.64;95406.25;4987802;28;20480;-66
2021/04/10 07:16:20;;;;;;;5.47;2.15;;;;;;;9.80;41.54;95401.28;4988340;28;20055;-66
2021/04/10 07:18:46;;;;;;;4.10;2.10;;;;;;;10.03;41.16;95395.41;5005154;28;20108;-66
2021/04/10 07:21:19;;;;;;;4.05;2.22;;;;;;;10.18;41.41;95402.44;4989964;28;20456;-66
2021/04/10 07:23:50;;;;;;;4.95;2.10;;;;;;;10.21;42.42;95401.94;4989785;28;20073;-67
2021/04/10 07:26:17;;;;;;;4.85;2.03;;;;;;;10.48;40.08;95400.78;4987316;28;20038;-67
2021/04/10 07:28:43;;;;;;;4.40;2.10;;;;;;;10.57;40.85;95404.44;5004355;28;20129;-67
2021/04/10 07:31:11;;;;;;;4.72;2.13;;;;;;;10.52;40.14;95407.06;4989557;28;20043;-69
2021/04/10 07:33:43;;;;;;;5.00;2.10;;;;;;;10.66;39.97;95409.09;4989556;28;20046;-67
2021/04/10 07:36:16;;;;;;;5.03;2.33;;;;;;;10.78;40.78;95412.19;4993052;28;20066;-68
2021/04/10 07:38:43;;;;;;;3.83;2.10;;;;;;;10.79;39.70;95405.09;4991546;28;20510;-67
2021/04/10 07:41:12;;;;;;;6.60;2.38;;;;;;;10.84;39.94;95413.75;4986393;28;20038;-67
2021/04/10 07:43:38;;;;;;;3.70;2.20;;;;;;;11.01;39.78;95423.91;4992287;28;20034;-70
2021/04/10 07:46:17;;;;;;;4.47;2.10;;;;;;;11.07;39.79;95422.78;4989546;28;20038;-68
2021/04/10 07:48:58;;;;;;;5.15;2.25;;;;;;;11.17;39.69;95415.91;4991627;28;20049;-69
2021/04/10 07:51:23;;;;;;;3.38;1.92;;;;;;;11.15;40.30;95424.06;4990260;28;20050;-70
2021/04/10 07:53:49;;;;;;;3.40;1.95;;;;;;;11.09;39.38;95425.16;4991433;28;20046;-70
2021/04/10 07:56:14;;;;;;;5.80;2.63;;;;;;;11.06;39.06;95428.34;4987481;28;20568;-71
2021/04/10 07:58:40;;;;;;;4.80;2.28;;;;;;;11.09;40.04;95419.88;4991752;28;20056;-70
2021/04/10 08:01:08;;;;;;;3.53;1.98;;;;;;;11.04;39.39;95427.84;4991658;28;20073;-70
2021/04/10 08:03:41;;;;;;;3.50;2.10;;;;;;;11.16;39.58;95425.66;4988689;28;20053;-70
2021/04/10 08:06:06;;;;;;;5.05;2.20;;;;;;;11.03;40.02;95426.25;4988989;28;20046;-69
2021/04/10 08:08:56;;;;;;;4.70;2.17;;;;;;;11.08;40.96;95426.25;4991014;28;20468;-70
2021/04/10 08:11:41;;;;;;;3.75;2.10;;;;;;;11.33;40.27;95435.00;4991208;28;20126;-70
2021/04/10 08:14:10;;;;;;;4.25;2.03;;;;;;;11.23;40.51;95426.13;4981333;28;20110;-69
2021/04/10 08:16:47;;;;;;;5.57;2.17;;;;;;;11.41;39.92;95429.16;5000818;28;20508;-69
2021/04/10 08:19:15;;;;;;;5.93;2.30;;;;;;;11.36;39.91;95423.91;4991410;28;20050;-70
2021/04/10 08:21:48;;;;;;;5.53;2.20;;;;;;;11.42;39.60;95425.44;4993370;28;20117;-69
2021/04/10 08:24:20;;;;;;;3.20;2.03;;;;;;;11.54;39.81;95425.88;4991346;28;20043;-69
2021/04/10 08:26:46;;;;;;;5.70;2.22;;;;;;;11.55;40.02;95422.19;4995204;28;20106;-72
2021/04/10 08:29:12;;;;;;;5.18;1.95;;;;;;;11.72;39.73;95431.50;4993115;28;20500;-69
2021/04/10 08:32:01;;;;;;;5.35;2.00;;;;;;;11.93;39.72;95432.91;4994108;28;20126;-68
2021/04/10 08:34:27;;;;;;;5.70;2.00;;;;;;;11.79;38.25;95431.97;4981735;28;20109;-66
2021/04/10 08:36:56;;;;;;;7.22;1.80;;;;;;;11.67;38.96;95444.75;4994725;28;20061;-68
2021/04/10 08:39:27;;;;;;;6.03;2.00;;;;;;;11.55;39.10;95432.72;4994492;28;20500;-67
2021/04/10 08:41:55;;;;;;;6.05;1.90;;;;;;;11.53;39.89;95440.09;4994031;28;20050;-67
2021/04/10 08:44:25;;;;;;;3.97;2.00;;;;;;;11.48;39.11;95442.81;4994269;28;20082;-67
2021/04/10 08:46:51;;;;;;;4.55;2.00;;;;;;;11.57;39.48;95435.84;4993006;28;20043;-68
2021/04/10 08:49:18;;;;;;;5.30;2.00;;;;;;;11.67;38.66;95444.75;4994321;28;20073;-67
2021/04/10 08:51:45;;;;;;;4.13;1.90;;;;;;;11.73;39.87;95443.63;4994891;28;20104;-67
2021/04/10 08:54:11;;;;;;;5.00;2.00;;;;;;;11.66;39.43;95451.06;4985730;28;20043;-67
2021/04/10 08:56:39;;;;;;;5.93;2.10;;;;;;;11.61;38.90;95444.78;4990718;28;20043;-69
2021/04/10 08:59:10;;;;;;;4.95;2.17;;;;;;;11.85;39.43;95446.69;5008753;28;20046;-67
2021/04/10 09:01:37;;;;;;;7.03;2.38;;;;;;;11.90;39.68;95446.63;4987765;28;20043;-67
2021/04/10 09:04:03;;;;;;;4.20;1.90;;;;;;;11.98;39.40;95439.22;4993319;28;20057;-67
2021/04/10 09:06:28;;;;;;;8.73;2.97;;;;;;;12.09;39.41;95440.69;4994680;28;20034;-67
2021/04/10 09:08:54;;;;;;;4.40;2.10;;;;;;;12.26;40.00;95440.22;4991173;28;20046;-67
2021/04/10 09:11:21;;;;;;;5.97;1.92;;;;;;;12.21;37.69;95443.72;4995666;28;20302;-68
2021/04/10 09:13:47;;;;;;;3.17;1.90;;;;;;;12.33;37.98;95445.19;5010474;28;20042;-68
2021/04/10 09:16:34;;;;;;;4.28;2.10;;;;;;;12.41;36.90;95457.72;4984965;28;20042;-67
2021/04/10 09:19:02;;;;;;;4.93;2.00;;;;;;;12.42;37.22;95448.75;4994020;28;20046;-67
2021/04/10 09:21:36;;;;;;;4.03;1.83;;;;;;;12.40;36.90;95445.63;5008522;28;20042;-67
2021/04/10 09:24:29;;;;;;;4.93;2.30;;;;;;;12.43;37.08;95439.78;4994198;28;20039;-66
2021/04/10 09:26:59;;;;;;;4.15;2.10;;;;;;;12.47;37.27;95440.78;4989662;28;20042;-68
2021/04/10 09:29:27;;;;;;;4.38;2.10;;;;;;;12.77;36.35;95444.09;4993959;28;20101;-66
2021/04/10 09:31:57;;;;;;;3.15;2.05;;;;;;;12.81;36.55;95439.81;4988057;28;20039;-66
2021/04/10 09:34:48;;;;;;;11.50;2.22;;;;;;;12.85;36.43;95446.09;4987514;28;20112;-68
2021/04/10 09:37:20;;;;;;;4.88;2.20;;;;;;;13.04;36.08;95437.41;4993533;28;20532;-66
2021/04/10 09:39:52;;;;;;;4.13;2.13;;;;;;;13.27;35.31;95441.78;4993750;28;20408;-69
2021/04/10 09:42:44;;;;;;;6.18;2.28;;;;;;;12.88;35.02;95442.88;5005053;28;20042;-68
2021/04/10 09:45:22;;;;;;;4.00;2.25;;;;;;;12.71;36.29;95445.22;4989541;28;20054;-67
2021/04/10 09:48:00;;;;;;;6.22;2.65;;;;;;;12.74;36.05;95455.22;4995929;28;20041;-67
2021/04/10 09:50:37;;;;;;;4.75;2.33;;;;;;;12.71;36.16;95445.22;5008917;28;20424;-66
2021/04/10 09:53:05;;;;;;;5.50;2.20;;;;;;;12.85;36.47;95443.47;4994241;28;20046;-68
2021/04/10 09:55:33;;;;;;;5.60;2.22;;;;;;;12.90;36.01;95451.31;4991706;28;20038;-69
2021/04/10 09:58:04;;;;;;;4.35;2.38;;;;;;;12.97;36.37;95443.03;4992193;28;20088;-69
2021/04/10 10:00:31;;;;;;;7.22;2.50;;;;;;;12.94;36.46;95444.41;4993112;28;20048;-67
2021/04/10 10:02:58;;;;;;;6.20;2.20;;;;;;;13.16;37.03;95435.13;4990771;28;20045;-66
2021/04/10 10:05:29;;;;;;;5.65;2.22;;;;;;;13.16;35.97;95425.31;4989977;28;20047;-66
2021/04/10 10:08:00;;;;;;;5.93;2.55;;;;;;;12.97;35.64;95427.97;4992718;28;20049;-66
2021/04/10 10:10:30;;;;;;;6.20;2.42;;;;;;;12.69;36.03;95431.53;4992225;28;20049;-67
2021/04/10 10:13:00;;;;;;;5.03;2.20;;;;;;;12.55;36.40;95426.94;4993325;28;20455;-66
2021/04/10 10:15:26;;;;;;;4.90;2.53;;;;;;;12.55;37.86;95426.94;4989589;28;20122;-68
2021/04/10 10:17:52;;;;;;;4.57;2.40;;;;;;;12.62;36.83;95419.47;4992711;28;20061;-68
2021/04/10 10:20:17;;;;;;;3.20;2.08;;;;;;;13.04;37.49;95410.97;4991705;28;20489;-68
2021/04/10 10:22:43;;;;;;;6.78;2.50;;;;;;;13.34;37.21;95410.53;4993189;28;20073;-68
2021/04/10 10:25:10;;;;;;;4.25;2.17;;;;;;;13.55;35.93;95410.22;4986319;28;20066;-66
2021/04/10 10:27:42;;;;;;;5.78;2.40;;;;;;;13.29;36.67;95397.38;4974817;28;20047;-67
2021/04/10 10:30:21;;;;;;;6.15;2.70;;;;;;;13.18;37.57;95407.31;4986384;28;20046;-68
2021/04/10 10:32:50;;;;;;;5.35;2.22;;;;;;;13.32;36.68;95396.78;5006623;28;20516;-67
2021/04/10 10:35:19;;;;;;;5.80;2.40;;;;;;;13.32;37.85;95396.78;4990699;28;20046;-66
2021/04/10 10:37:47;;;;;;;10.55;2.65;;;;;;;13.46;37.10;95401.34;4992209;28;20038;-66
2021/04/10 10:40:25;;;;;;;5.43;2.50;;;;;;;13.30;37.09;95391.03;4990492;28;20053;-64
2021/04/10 10:43:17;;;;;;;5.30;2.40;;;;;;;13.40;37.44;95391.94;4990623;28;20057;-68
2021/04/10 10:45:48;;;;;;;6.15;2.90;;;;;;;13.32;37.51;95382.81;4985359;28;20476;-66
2021/04/10 10:48:33;;;;;;;5.90;2.72;;;;;;;13.62;37.18;95389.47;4992742;28;20042;-68
2021/04/10 10:50:58;;;;;;;5.22;2.45;;;;;;;13.86;37.01;95393.78;4993005;28;20488;-68
2021/04/10 10:53:26;;;;;;;5.30;2.47;;;;;;;13.99;37.17;95382.44;4989949;28;20045;-68
2021/04/10 10:55:55;;;;;;;5.10;2.40;;;;;;;13.86;36.36;95377.91;4981539;28;20034;-67
2021/04/10 10:58:22;;;;;;;4.45;2.38;;;;;;;13.98;34.89;95380.88;4991792;28;20038;-67
2021/04/10 11:00:48;;;;;;;5.28;2.40;;;;;;;14.19;34.12;95364.59;4992972;28;20053;-69
2021/04/10 11:03:23;;;;;;;4.25;2.45;;;;;;;13.51;35.25;95369.56;4991369;28;20050;-70
2021/04/10 11:05:52;;;;;;;5.10;2.60;;;;;;;14.19;34.74;95354.00;4991789;28;20112;-67
2021/04/10 11:08:23;;;;;;;6.80;2.72;;;;;;;13.69;35.22;95358.13;4992660;28;20038;-67
2021/04/10 11:10:52;;;;;;;7.22;2.92;;;;;;;13.84;35.63;95356.28;4982369;28;20039;-68
2021/04/10 11:13:18;;;;;;;4.40;2.40;;;;;;;15.50;33.94;95351.59;4978080;28;20089;-67
2021/04/10 11:15:45;;;;;;;6.53;2.60;;;;;;;16.07;32.55;95343.75;5005530;28;20046;-69
2021/04/10 11:18:25;;;;;;;8.05;2.90;;;;;;;16.26;31.35;95334.75;4992016;28;20496;-70
2021/04/10 11:20:51;;;;;;;7.47;2.80;;;;;;;15.55;33.33;95340.88;4991708;28;20544;-70
2021/04/10 11:23:17;;;;;;;8.60;2.90;;;;;;;14.89;33.67;95333.47;4976260;28;20038;-68
2021/04/10 11:25:54;;;;;;;6.93;2.50;;;;;;;14.47;34.58;95332.81;4990571;28;20045;-69
2021/04/10 11:28:31;;;;;;;4.93;2.92;;;;;;;14.68;33.95;95328.66;4991914;28;20049;-65
2021/04/10 11:31:07;;;;;;;4.93;2.70;;;;;;;14.56;34.73;95325.69;4992778;28;20050;-65
2021/04/10 11:33:35;;;;;;;5.85;2.80;;;;;;;15.96;35.14;95320.47;4973735;28;20412;-65
2021/04/10 11:36:01;;;;;;;5.85;2.80;;;;;;;15.12;32.89;95320.22;4978137;28;20101;-65
2021/04/10 11:38:27;;;;;;;7.40;2.92;;;;;;;14.64;33.94;95317.09;4990620;28;20382;-65
2021/04/10 11:40:53;;;;;;;5.55;2.60;;;;;;;15.10;34.02;95312.56;4991932;28;20077;-65
2021/04/10 11:43:18;;;;;;;7.93;2.75;;;;;;;15.21;34.81;95313.09;4984160;28;20050;-65
2021/04/10 11:45:47;;;;;;;5.60;2.80;;;;;;;14.31;33.94;95314.59;4989936;28;20091;-70